sensor_id;sensor_type;location;lat;lon;timestamp;pressure;altitude;pressure_sealevel;temperature;humidity
61761;BME280;47664;51.660;-0.100;2023-08-24T00:01:33;100913.39;;;20.48;54.66
61761;BME280;47664;51.660;-0.100;2023-08-24T00:04:01;100911.59;;;20.52;54.99
61761;BME280;47664;51.660;-0.100;2023-08-24T00:06:27;100911.26;;;20.56;55.50
61761;BME280;47664;51.660;-0.100;2023-08-24T00:08:54;100905.64;;;20.70;55.38
61761;BME280;47664;51.660;-0.100;2023-08-24T00:11:21;100905.82;;;20.94;54.32
61761;BME280;47664;51.660;-0.100;2023-08-24T00:13:48;100905.67;;;21.13;53.99
61761;BME280;47664;51.660;-0.100;2023-08-24T00:16:15;100903.03;;;21.06;53.33
61761;BME280;47664;51.660;-0.100;2023-08-24T00:18:42;100898.60;;;21.02;53.10
61761;BME280;47664;51.660;-0.100;2023-08-24T00:21:09;100895.85;;;20.89;53.27
61761;BME280;47664;51.660;-0.100;2023-08-24T00:23:36;100898.69;;;20.82;53.66
61761;BME280;47664;51.660;-0.100;2023-08-24T00:26:03;100895.07;;;21.30;52.89
61761;BME280;47664;51.660;-0.100;2023-08-24T00:28:30;100894.67;;;21.54;52.20
61761;BME280;47664;51.660;-0.100;2023-08-24T00:30:56;100894.90;;;21.61;52.09
61761;BME280;47664;51.660;-0.100;2023-08-24T00:33:24;100893.17;;;21.64;51.91
61761;BME280;47664;51.660;-0.100;2023-08-24T00:35:51;100898.06;;;21.41;51.98
61761;BME280;47664;51.660;-0.100;2023-08-24T00:38:17;100895.03;;;21.50;51.91
61761;BME280;47664;51.660;-0.100;2023-08-24T00:40:44;100895.83;;;21.38;51.84
61761;BME280;47664;51.660;-0.100;2023-08-24T00:43:11;100893.21;;;21.23;52.52
61761;BME280;47664;51.660;-0.100;2023-08-24T00:45:38;100887.10;;;21.13;52.88
61761;BME280;47664;51.660;-0.100;2023-08-24T00:48:06;100888.79;;;20.91;53.07
61761;BME280;47664;51.660;-0.100;2023-08-24T00:50:34;100891.14;;;20.74;53.60
61761;BME280;47664;51.660;-0.100;2023-08-24T00:53:01;100890.03;;;21.09;53.05
61761;BME280;47664;51.660;-0.100;2023-08-24T00:55:28;100886.14;;;20.81;52.52
61761;BME280;47664;51.660;-0.100;2023-08-24T00:57:56;100880.69;;;21.42;52.01
61761;BME280;47664;51.660;-0.100;2023-08-24T01:00:23;100875.54;;;21.23;52.24
61761;BME280;47664;51.660;-0.100;2023-08-24T01:02:50;100883.24;;;21.08;52.02
61761;BME280;47664;51.660;-0.100;2023-08-24T01:05:17;100882.01;;;21.33;52.02
61761;BME280;47664;51.660;-0.100;2023-08-24T01:07:44;100881.47;;;21.36;52.84
61761;BME280;47664;51.660;-0.100;2023-08-24T01:10:11;100886.34;;;20.69;53.13
61761;BME280;47664;51.660;-0.100;2023-08-24T01:12:56;100883.02;;;20.75;53.06
61761;BME280;47664;51.660;-0.100;2023-08-24T01:15:32;100883.37;;;20.69;53.21
61761;BME280;47664;51.660;-0.100;2023-08-24T01:18:05;100884.99;;;20.92;52.89
61761;BME280;47664;51.660;-0.100;2023-08-24T01:20:34;100882.93;;;21.07;52.59
61761;BME280;47664;51.660;-0.100;2023-08-24T01:23:12;100880.40;;;21.40;51.70
61761;BME280;47664;51.660;-0.100;2023-08-24T01:25:48;100883.60;;;21.37;51.64
61761;BME280;47664;51.660;-0.100;2023-08-24T01:28:19;100886.59;;;21.58;51.13
61761;BME280;47664;51.660;-0.100;2023-08-24T01:30:47;100884.32;;;21.25;51.46
61761;BME280;47664;51.660;-0.100;2023-08-24T01:33:15;100880.48;;;21.22;51.53
61761;BME280;47664;51.660;-0.100;2023-08-24T01:35:42;100879.05;;;21.38;51.20
61761;BME280;47664;51.660;-0.100;2023-08-24T01:38:09;100872.20;;;21.69;50.74
61761;BME280;47664;51.660;-0.100;2023-08-24T01:40:43;100868.98;;;21.20;50.66
61761;BME280;47664;51.660;-0.100;2023-08-24T01:43:14;100866.31;;;21.15;51.26
61761;BME280;47664;51.660;-0.100;2023-08-24T01:45:42;100861.71;;;20.96;51.63
61761;BME280;47664;51.660;-0.100;2023-08-24T01:48:12;100857.84;;;21.49;51.11
61761;BME280;47664;51.660;-0.100;2023-08-24T01:50:40;100849.89;;;21.38;50.72
61761;BME280;47664;51.660;-0.100;2023-08-24T01:53:08;100842.23;;;21.25;50.91
61761;BME280;47664;51.660;-0.100;2023-08-24T01:55:35;100835.23;;;21.32;51.06
61761;BME280;47664;51.660;-0.100;2023-08-24T01:58:02;100832.36;;;20.96;51.70
61761;BME280;47664;51.660;-0.100;2023-08-24T02:00:30;100829.04;;;20.64;52.00
61761;BME280;47664;51.660;-0.100;2023-08-24T02:02:57;100829.23;;;20.87;52.03
61761;BME280;47664;51.660;-0.100;2023-08-24T02:05:25;100825.40;;;20.98;51.65
61761;BME280;47664;51.660;-0.100;2023-08-24T02:07:52;100821.23;;;21.16;51.25
61761;BME280;47664;51.660;-0.100;2023-08-24T02:10:19;100816.71;;;21.10;51.25
61761;BME280;47664;51.660;-0.100;2023-08-24T02:12:46;100809.78;;;20.98;51.48
61761;BME280;47664;51.660;-0.100;2023-08-24T02:15:13;100794.24;;;20.97;51.38
61761;BME280;47664;51.660;-0.100;2023-08-24T02:17:40;100790.07;;;20.62;51.93
61761;BME280;47664;51.660;-0.100;2023-08-24T02:20:08;100779.63;;;20.26;52.57
61761;BME280;47664;51.660;-0.100;2023-08-24T02:22:35;100770.91;;;20.29;52.46
61761;BME280;47664;51.660;-0.100;2023-08-24T02:25:02;100758.90;;;20.42;52.97
61761;BME280;47664;51.660;-0.100;2023-08-24T02:27:29;100749.36;;;20.19;53.53
61761;BME280;47664;51.660;-0.100;2023-08-24T02:29:56;100744.31;;;19.94;53.75
61761;BME280;47664;51.660;-0.100;2023-08-24T02:32:23;100742.06;;;20.07;53.65
61761;BME280;47664;51.660;-0.100;2023-08-24T02:34:50;100732.93;;;20.32;53.01
61761;BME280;47664;51.660;-0.100;2023-08-24T02:37:17;100733.65;;;20.54;52.91
61761;BME280;47664;51.660;-0.100;2023-08-24T02:39:44;100743.35;;;20.25;52.78
61761;BME280;47664;51.660;-0.100;2023-08-24T02:42:11;100751.00;;;20.13;52.97
61761;BME280;47664;51.660;-0.100;2023-08-24T02:44:38;100755.57;;;20.32;52.29
61761;BME280;47664;51.660;-0.100;2023-08-24T02:47:05;100754.98;;;20.42;52.31
61761;BME280;47664;51.660;-0.100;2023-08-24T02:49:32;100755.55;;;18.89;54.23
61761;BME280;47664;51.660;-0.100;2023-08-24T02:51:59;100756.58;;;18.50;56.21
61761;BME280;47664;51.660;-0.100;2023-08-24T02:54:26;100750.57;;;18.46;56.27
61761;BME280;47664;51.660;-0.100;2023-08-24T02:56:54;100747.20;;;19.04;55.78
61761;BME280;47664;51.660;-0.100;2023-08-24T02:59:21;100748.83;;;19.59;55.08
61761;BME280;47664;51.660;-0.100;2023-08-24T03:01:48;100747.19;;;19.49;54.60
61761;BME280;47664;51.660;-0.100;2023-08-24T03:04:15;100756.16;;;19.65;54.29
61761;BME280;47664;51.660;-0.100;2023-08-24T03:06:43;100761.08;;;19.33;54.26
61761;BME280;47664;51.660;-0.100;2023-08-24T03:09:11;100772.48;;;19.05;55.78
61761;BME280;47664;51.660;-0.100;2023-08-24T03:11:38;100778.17;;;19.12;56.00
61761;BME280;47664;51.660;-0.100;2023-08-24T03:14:05;100770.21;;;19.27;55.35
61761;BME280;47664;51.660;-0.100;2023-08-24T03:16:33;100756.43;;;19.36;54.51
61761;BME280;47664;51.660;-0.100;2023-08-24T03:19:00;100743.63;;;19.58;53.75
61761;BME280;47664;51.660;-0.100;2023-08-24T03:21:28;100728.05;;;19.16;53.63
61761;BME280;47664;51.660;-0.100;2023-08-24T03:23:55;100721.63;;;19.83;53.20
61761;BME280;47664;51.660;-0.100;2023-08-24T03:26:23;100713.99;;;19.94;52.84
61761;BME280;47664;51.660;-0.100;2023-08-24T03:28:50;100706.80;;;19.93;52.68
61761;BME280;47664;51.660;-0.100;2023-08-24T03:31:17;100700.23;;;19.98;52.51
61761;BME280;47664;51.660;-0.100;2023-08-24T03:33:45;100693.94;;;20.28;52.20
61761;BME280;47664;51.660;-0.100;2023-08-24T03:36:12;100683.46;;;19.86;52.32
61761;BME280;47664;51.660;-0.100;2023-08-24T03:38:39;100681.74;;;19.71;52.55
61761;BME280;47664;51.660;-0.100;2023-08-24T03:41:07;100684.08;;;19.80;52.36
61761;BME280;47664;51.660;-0.100;2023-08-24T03:43:35;100686.70;;;20.09;52.31
61761;BME280;47664;51.660;-0.100;2023-08-24T03:46:02;100696.12;;;19.20;53.28
61761;BME280;47664;51.660;-0.100;2023-08-24T03:48:30;100691.36;;;19.78;52.88
61761;BME280;47664;51.660;-0.100;2023-08-24T03:50:57;100683.41;;;19.88;52.39
61761;BME280;47664;51.660;-0.100;2023-08-24T03:53:24;100687.01;;;19.67;52.39
61761;BME280;47664;51.660;-0.100;2023-08-24T03:55:52;100691.28;;;19.76;52.55
61761;BME280;47664;51.660;-0.100;2023-08-24T03:58:19;100689.28;;;19.43;53.10
61761;BME280;47664;51.660;-0.100;2023-08-24T04:00:47;100688.10;;;19.16;53.78
61761;BME280;47664;51.660;-0.100;2023-08-24T04:03:14;100700.40;;;19.23;54.31
61761;BME280;47664;51.660;-0.100;2023-08-24T04:05:41;100692.22;;;19.27;53.75
61761;BME280;47664;51.660;-0.100;2023-08-24T04:08:07;100694.32;;;19.44;53.41
61761;BME280;47664;51.660;-0.100;2023-08-24T04:10:34;100690.15;;;19.38;52.90
61761;BME280;47664;51.660;-0.100;2023-08-24T04:13:01;100687.39;;;19.43;53.07
61761;BME280;47664;51.660;-0.100;2023-08-24T04:15:28;100691.82;;;18.67;53.87
61761;BME280;47664;51.660;-0.100;2023-08-24T04:17:56;100683.04;;;19.80;53.04
61761;BME280;47664;51.660;-0.100;2023-08-24T04:20:23;100676.62;;;19.65;52.80
61761;BME280;47664;51.660;-0.100;2023-08-24T04:22:50;100664.63;;;19.60;52.39
61761;BME280;47664;51.660;-0.100;2023-08-24T04:25:17;100665.12;;;19.67;52.31
61761;BME280;47664;51.660;-0.100;2023-08-24T04:27:44;100668.57;;;19.78;52.10
61761;BME280;47664;51.660;-0.100;2023-08-24T04:30:11;100683.08;;;19.66;52.24
61761;BME280;47664;51.660;-0.100;2023-08-24T04:32:39;100691.21;;;19.56;52.58
61761;BME280;47664;51.660;-0.100;2023-08-24T04:35:07;100697.84;;;19.43;52.60
61761;BME280;47664;51.660;-0.100;2023-08-24T04:37:34;100701.28;;;19.13;53.36
61761;BME280;47664;51.660;-0.100;2023-08-24T04:40:01;100698.83;;;19.03;54.46
61761;BME280;47664;51.660;-0.100;2023-08-24T04:42:28;100693.90;;;18.57;54.92
61761;BME280;47664;51.660;-0.100;2023-08-24T04:44:55;100691.38;;;19.12;54.11
61761;BME280;47664;51.660;-0.100;2023-08-24T04:47:22;100671.10;;;19.34;53.43
61761;BME280;47664;51.660;-0.100;2023-08-24T04:49:49;100660.96;;;19.59;52.88
61761;BME280;47664;51.660;-0.100;2023-08-24T04:52:16;100657.02;;;19.72;52.72
61761;BME280;47664;51.660;-0.100;2023-08-24T04:54:43;100658.59;;;19.99;52.06
61761;BME280;47664;51.660;-0.100;2023-08-24T04:57:10;100649.81;;;20.27;51.88
61761;BME280;47664;51.660;-0.100;2023-08-24T04:59:37;100645.19;;;19.57;52.86
61761;BME280;47664;51.660;-0.100;2023-08-24T05:02:04;100665.88;;;19.31;53.69
61761;BME280;47664;51.660;-0.100;2023-08-24T05:04:31;100668.86;;;19.29;54.09
61761;BME280;47664;51.660;-0.100;2023-08-24T05:06:58;100659.79;;;19.47;53.97
61761;BME280;47664;51.660;-0.100;2023-08-24T05:09:26;100656.56;;;19.50;53.79
61761;BME280;47664;51.660;-0.100;2023-08-24T05:11:53;100646.59;;;20.02;53.92
61761;BME280;47664;51.660;-0.100;2023-08-24T05:14:20;100630.09;;;19.45;54.93
61761;BME280;47664;51.660;-0.100;2023-08-24T05:16:47;100633.43;;;19.30;55.14
61761;BME280;47664;51.660;-0.100;2023-08-24T05:19:14;100642.68;;;18.91;55.54
61761;BME280;47664;51.660;-0.100;2023-08-24T05:21:41;100661.48;;;18.56;57.53
61761;BME280;47664;51.660;-0.100;2023-08-24T05:24:08;100677.56;;;18.68;58.99
61761;BME280;47664;51.660;-0.100;2023-08-24T05:26:35;100678.89;;;18.44;58.26
61761;BME280;47664;51.660;-0.100;2023-08-24T05:29:03;100669.17;;;18.96;58.08
61761;BME280;47664;51.660;-0.100;2023-08-24T05:31:29;100665.03;;;18.53;57.28
61761;BME280;47664;51.660;-0.100;2023-08-24T05:33:57;100657.26;;;19.52;56.99
61761;BME280;47664;51.660;-0.100;2023-08-24T05:36:24;100629.18;;;19.38;56.72
61761;BME280;47664;51.660;-0.100;2023-08-24T05:38:51;100602.18;;;18.60;57.59
61761;BME280;47664;51.660;-0.100;2023-08-24T05:41:18;100610.03;;;18.99;57.15
61761;BME280;47664;51.660;-0.100;2023-08-24T05:43:45;100630.15;;;18.67;58.04
61761;BME280;47664;51.660;-0.100;2023-08-24T05:46:12;100628.64;;;19.66;57.06
61761;BME280;47664;51.660;-0.100;2023-08-24T05:48:39;100622.87;;;19.38;56.54
61761;BME280;47664;51.660;-0.100;2023-08-24T05:51:06;100616.41;;;19.68;56.11
61761;BME280;47664;51.660;-0.100;2023-08-24T05:53:33;100623.34;;;19.50;55.77
61761;BME280;47664;51.660;-0.100;2023-08-24T05:56:00;100628.46;;;19.83;55.71
61761;BME280;47664;51.660;-0.100;2023-08-24T05:58:27;100626.95;;;19.40;55.13
61761;BME280;47664;51.660;-0.100;2023-08-24T06:00:58;100622.57;;;19.91;55.54
61761;BME280;47664;51.660;-0.100;2023-08-24T06:03:25;100619.59;;;19.26;55.94
61761;BME280;47664;51.660;-0.100;2023-08-24T06:05:52;100631.62;;;19.51;55.94
61761;BME280;47664;51.660;-0.100;2023-08-24T06:08:20;100628.07;;;19.80;55.97
61761;BME280;47664;51.660;-0.100;2023-08-24T06:10:47;100629.89;;;19.49;55.80
61761;BME280;47664;51.660;-0.100;2023-08-24T06:13:14;100628.23;;;19.27;57.53
61761;BME280;47664;51.660;-0.100;2023-08-24T06:15:42;100646.33;;;19.03;58.01
61761;BME280;47664;51.660;-0.100;2023-08-24T06:18:09;100646.80;;;19.22;57.94
61761;BME280;47664;51.660;-0.100;2023-08-24T06:20:36;100639.30;;;19.10;56.56
61761;BME280;47664;51.660;-0.100;2023-08-24T06:23:03;100628.40;;;19.62;55.73
61761;BME280;47664;51.660;-0.100;2023-08-24T06:25:30;100628.87;;;19.41;55.40
61761;BME280;47664;51.660;-0.100;2023-08-24T06:27:57;100639.14;;;18.63;57.49
61761;BME280;47664;51.660;-0.100;2023-08-24T06:30:26;100635.21;;;18.82;58.71
61761;BME280;47664;51.660;-0.100;2023-08-24T06:32:53;100642.37;;;19.11;59.06
61761;BME280;47664;51.660;-0.100;2023-08-24T06:35:20;100639.06;;;19.01;59.02
61761;BME280;47664;51.660;-0.100;2023-08-24T06:37:47;100653.44;;;18.80;59.32
61761;BME280;47664;51.660;-0.100;2023-08-24T06:40:14;100660.82;;;19.11;59.43
61761;BME280;47664;51.660;-0.100;2023-08-24T06:42:41;100625.77;;;19.08;59.44
61761;BME280;47664;51.660;-0.100;2023-08-24T06:45:09;100617.93;;;19.17;59.01
61761;BME280;47664;51.660;-0.100;2023-08-24T06:47:36;100621.17;;;19.06;58.77
61761;BME280;47664;51.660;-0.100;2023-08-24T06:50:03;100631.33;;;19.03;59.53
61761;BME280;47664;51.660;-0.100;2023-08-24T06:52:31;100639.87;;;18.46;61.10
61761;BME280;47664;51.660;-0.100;2023-08-24T06:54:59;100636.50;;;18.79;61.05
61761;BME280;47664;51.660;-0.100;2023-08-24T06:57:27;100638.45;;;18.33;61.21
61761;BME280;47664;51.660;-0.100;2023-08-24T06:59:54;100629.61;;;19.10;61.44
61761;BME280;47664;51.660;-0.100;2023-08-24T07:02:21;100633.47;;;18.98;62.19
61761;BME280;47664;51.660;-0.100;2023-08-24T07:04:49;100632.01;;;19.02;61.79
61761;BME280;47664;51.660;-0.100;2023-08-24T07:07:16;100621.95;;;19.27;60.25
61761;BME280;47664;51.660;-0.100;2023-08-24T07:09:43;100595.84;;;18.78;60.24
61761;BME280;47664;51.660;-0.100;2023-08-24T07:12:10;100606.93;;;19.16;60.20
61761;BME280;47664;51.660;-0.100;2023-08-24T07:14:38;100607.71;;;18.88;61.01
61761;BME280;47664;51.660;-0.100;2023-08-24T07:17:06;100608.50;;;19.28;61.16
61761;BME280;47664;51.660;-0.100;2023-08-24T07:19:33;100617.87;;;19.05;61.19
61761;BME280;47664;51.660;-0.100;2023-08-24T07:22:00;100613.89;;;19.45;60.79
61761;BME280;47664;51.660;-0.100;2023-08-24T07:24:27;100596.08;;;18.87;61.58
61761;BME280;47664;51.660;-0.100;2023-08-24T07:26:54;100585.42;;;18.89;61.76
61761;BME280;47664;51.660;-0.100;2023-08-24T07:29:23;100587.97;;;19.09;61.78
61761;BME280;47664;51.660;-0.100;2023-08-24T07:31:50;100609.20;;;18.29;64.10
61761;BME280;47664;51.660;-0.100;2023-08-24T07:34:18;100608.52;;;18.62;63.91
61761;BME280;47664;51.660;-0.100;2023-08-24T07:36:45;100605.16;;;19.04;63.27
61761;BME280;47664;51.660;-0.100;2023-08-24T07:39:12;100609.07;;;19.61;62.55
61761;BME280;47664;51.660;-0.100;2023-08-24T07:41:39;100605.02;;;19.58;61.97
61761;BME280;47664;51.660;-0.100;2023-08-24T07:44:06;100594.96;;;19.73;60.86
61761;BME280;47664;51.660;-0.100;2023-08-24T07:46:34;100586.71;;;19.98;59.69
61761;BME280;47664;51.660;-0.100;2023-08-24T07:49:01;100588.20;;;19.86;59.24
61761;BME280;47664;51.660;-0.100;2023-08-24T07:51:29;100590.22;;;19.13;59.02
61761;BME280;47664;51.660;-0.100;2023-08-24T07:53:56;100594.21;;;19.74;60.16
61761;BME280;47664;51.660;-0.100;2023-08-24T07:56:24;100596.95;;;19.85;60.47
61761;BME280;47664;51.660;-0.100;2023-08-24T07:58:50;100584.94;;;19.92;60.69
61761;BME280;47664;51.660;-0.100;2023-08-24T08:01:17;100571.00;;;19.98;59.60
61761;BME280;47664;51.660;-0.100;2023-08-24T08:03:44;100555.04;;;20.03;59.29
61761;BME280;47664;51.660;-0.100;2023-08-24T08:06:12;100557.98;;;20.06;59.38
61761;BME280;47664;51.660;-0.100;2023-08-24T08:08:39;100574.53;;;19.42;60.49
61761;BME280;47664;51.660;-0.100;2023-08-24T08:11:07;100582.39;;;19.56;61.08
61761;BME280;47664;51.660;-0.100;2023-08-24T08:13:34;100578.77;;;19.38;61.27
61761;BME280;47664;51.660;-0.100;2023-08-24T08:16:02;100571.77;;;19.90;60.73
61761;BME280;47664;51.660;-0.100;2023-08-24T08:18:30;100564.08;;;19.47;60.20
61761;BME280;47664;51.660;-0.100;2023-08-24T08:20:58;100559.11;;;20.18;59.44
61761;BME280;47664;51.660;-0.100;2023-08-24T08:23:31;100555.32;;;20.30;59.33
61761;BME280;47664;51.660;-0.100;2023-08-24T08:25:59;100547.99;;;20.42;59.20
61761;BME280;47664;51.660;-0.100;2023-08-24T08:28:25;100527.86;;;20.63;59.06
61761;BME280;47664;51.660;-0.100;2023-08-24T08:30:57;100510.43;;;19.72;59.60
61761;BME280;47664;51.660;-0.100;2023-08-24T08:33:25;100495.79;;;19.96;59.92
61761;BME280;47664;51.660;-0.100;2023-08-24T08:35:52;100495.06;;;19.69;59.83
61761;BME280;47664;51.660;-0.100;2023-08-24T08:38:19;100500.22;;;20.11;59.85
61761;BME280;47664;51.660;-0.100;2023-08-24T08:40:48;100510.87;;;19.92;59.96
61761;BME280;47664;51.660;-0.100;2023-08-24T08:43:16;100518.43;;;19.67;60.74
61761;BME280;47664;51.660;-0.100;2023-08-24T08:45:43;100496.97;;;19.92;61.45
61761;BME280;47664;51.660;-0.100;2023-08-24T08:48:11;100472.18;;;20.24;61.06
61761;BME280;47664;51.660;-0.100;2023-08-24T08:50:38;100474.20;;;19.83;60.52
61761;BME280;47664;51.660;-0.100;2023-08-24T08:53:05;100470.73;;;20.34;59.49
61761;BME280;47664;51.660;-0.100;2023-08-24T08:55:33;100460.54;;;20.39;59.80
61761;BME280;47664;51.660;-0.100;2023-08-24T08:58:00;100479.06;;;20.14;60.13
61761;BME280;47664;51.660;-0.100;2023-08-24T09:00:28;100510.18;;;20.03;61.44
61761;BME280;47664;51.660;-0.100;2023-08-24T09:02:57;100491.54;;;20.29;61.26
61761;BME280;47664;51.660;-0.100;2023-08-24T09:05:25;100480.85;;;20.43;60.44
61761;BME280;47664;51.660;-0.100;2023-08-24T09:07:54;100468.35;;;20.32;60.20
61761;BME280;47664;51.660;-0.100;2023-08-24T09:10:21;100469.31;;;20.43;59.74
61761;BME280;47664;51.660;-0.100;2023-08-24T09:12:48;100497.27;;;20.15;60.99
61761;BME280;47664;51.660;-0.100;2023-08-24T09:15:24;100501.42;;;20.36;60.43
61761;BME280;47664;51.660;-0.100;2023-08-24T09:17:51;100525.64;;;20.24;61.15
61761;BME280;47664;51.660;-0.100;2023-08-24T09:20:18;100513.22;;;20.44;61.31
61761;BME280;47664;51.660;-0.100;2023-08-24T09:22:45;100509.16;;;19.90;60.83
61761;BME280;47664;51.660;-0.100;2023-08-24T09:25:12;100527.73;;;20.06;61.67
61761;BME280;47664;51.660;-0.100;2023-08-24T09:27:38;100551.71;;;19.63;63.22
61761;BME280;47664;51.660;-0.100;2023-08-24T09:30:07;100555.58;;;19.93;63.66
61761;BME280;47664;51.660;-0.100;2023-08-24T09:32:34;100535.71;;;20.12;63.95
61761;BME280;47664;51.660;-0.100;2023-08-24T09:35:03;100515.09;;;20.82;62.96
61761;BME280;47664;51.660;-0.100;2023-08-24T09:37:32;100506.49;;;20.32;62.49
61761;BME280;47664;51.660;-0.100;2023-08-24T09:40:02;100492.70;;;20.90;61.22
61761;BME280;47664;51.660;-0.100;2023-08-24T09:42:29;100477.10;;;20.74;60.86
61761;BME280;47664;51.660;-0.100;2023-08-24T09:45:03;100467.28;;;21.43;61.33
61761;BME280;47664;51.660;-0.100;2023-08-24T09:47:30;100459.73;;;21.32;59.52
61761;BME280;47664;51.660;-0.100;2023-08-24T09:49:59;100454.33;;;21.55;58.09
61761;BME280;47664;51.660;-0.100;2023-08-24T09:52:32;100438.23;;;21.35;57.71
61761;BME280;47664;51.660;-0.100;2023-08-24T09:55:03;100450.11;;;21.84;57.41
61761;BME280;47664;51.660;-0.100;2023-08-24T09:57:33;100463.11;;;21.87;57.09
61761;BME280;47664;51.660;-0.100;2023-08-24T10:00:05;100456.65;;;21.92;56.59
61761;BME280;47664;51.660;-0.100;2023-08-24T10:02:36;100458.43;;;21.03;56.05
61761;BME280;47664;51.660;-0.100;2023-08-24T10:05:04;100455.29;;;22.11;56.30
61761;BME280;47664;51.660;-0.100;2023-08-24T10:07:33;100451.35;;;22.19;56.15
61761;BME280;47664;51.660;-0.100;2023-08-24T10:10:03;100454.30;;;22.52;54.95
61761;BME280;47664;51.660;-0.100;2023-08-24T10:12:41;100449.84;;;22.24;55.26
61761;BME280;47664;51.660;-0.100;2023-08-24T10:15:10;100447.70;;;22.52;55.53
61761;BME280;47664;51.660;-0.100;2023-08-24T10:17:38;100454.07;;;21.90;56.16
61761;BME280;47664;51.660;-0.100;2023-08-24T10:20:07;100461.28;;;22.51;53.50
61761;BME280;47664;51.660;-0.100;2023-08-24T10:22:35;100464.68;;;22.56;52.23
61761;BME280;47664;51.660;-0.100;2023-08-24T10:25:03;100473.89;;;22.42;53.02
61761;BME280;47664;51.660;-0.100;2023-08-24T10:27:30;100474.90;;;22.37;54.47
61761;BME280;47664;51.660;-0.100;2023-08-24T10:29:58;100478.18;;;22.29;54.47
61761;BME280;47664;51.660;-0.100;2023-08-24T10:32:26;100482.69;;;21.69;54.46
61761;BME280;47664;51.660;-0.100;2023-08-24T10:34:53;100473.36;;;22.03;54.33
61761;BME280;47664;51.660;-0.100;2023-08-24T10:37:26;100476.39;;;22.48;53.89
61761;BME280;47664;51.660;-0.100;2023-08-24T10:39:53;100483.40;;;22.20;53.54
61761;BME280;47664;51.660;-0.100;2023-08-24T10:42:20;100487.04;;;22.41;52.85
61761;BME280;47664;51.660;-0.100;2023-08-24T10:44:47;100490.49;;;22.47;52.94
61761;BME280;47664;51.660;-0.100;2023-08-24T10:47:18;100488.34;;;22.10;51.01
61761;BME280;47664;51.660;-0.100;2023-08-24T10:49:57;100490.55;;;22.44;49.83
61761;BME280;47664;51.660;-0.100;2023-08-24T10:52:26;100492.88;;;22.29;50.31
61761;BME280;47664;51.660;-0.100;2023-08-24T10:54:57;100494.45;;;22.32;50.36
61761;BME280;47664;51.660;-0.100;2023-08-24T10:57:34;100490.42;;;22.48;48.87
61761;BME280;47664;51.660;-0.100;2023-08-24T11:00:05;100494.82;;;22.14;48.53
61761;BME280;47664;51.660;-0.100;2023-08-24T11:02:42;100485.90;;;21.31;46.90
61761;BME280;47664;51.660;-0.100;2023-08-24T11:05:16;100474.31;;;22.43;46.55
61761;BME280;47664;51.660;-0.100;2023-08-24T11:07:53;100470.33;;;22.14;46.87
61761;BME280;47664;51.660;-0.100;2023-08-24T11:10:22;100465.59;;;22.75;46.25
61761;BME280;47664;51.660;-0.100;2023-08-24T11:13:06;100465.68;;;23.03;46.34
61761;BME280;47664;51.660;-0.100;2023-08-24T11:15:37;100465.52;;;22.47;46.03
61761;BME280;47664;51.660;-0.100;2023-08-24T11:18:13;100466.97;;;22.89;44.14
61761;BME280;47664;51.660;-0.100;2023-08-24T11:20:42;100466.84;;;23.07;44.10
61761;BME280;47664;51.660;-0.100;2023-08-24T11:23:10;100470.82;;;23.17;44.46
61761;BME280;47664;51.660;-0.100;2023-08-24T11:25:38;100473.55;;;23.26;44.02
61761;BME280;47664;51.660;-0.100;2023-08-24T11:28:06;100470.57;;;22.92;42.42
61761;BME280;47664;51.660;-0.100;2023-08-24T11:30:34;100473.95;;;23.07;41.95
61761;BME280;47664;51.660;-0.100;2023-08-24T11:33:02;100470.73;;;22.95;41.66
61761;BME280;47664;51.660;-0.100;2023-08-24T11:35:29;100468.95;;;22.96;41.01
61761;BME280;47664;51.660;-0.100;2023-08-24T11:37:56;100463.98;;;23.05;42.31
61761;BME280;47664;51.660;-0.100;2023-08-24T11:40:24;100457.08;;;22.86;42.49
61761;BME280;47664;51.660;-0.100;2023-08-24T11:42:53;100452.97;;;23.23;41.61
61761;BME280;47664;51.660;-0.100;2023-08-24T11:45:20;100451.53;;;23.40;40.98
61761;BME280;47664;51.660;-0.100;2023-08-24T11:47:48;100448.82;;;23.17;41.27
61761;BME280;47664;51.660;-0.100;2023-08-24T11:50:16;100444.96;;;23.39;41.93
61761;BME280;47664;51.660;-0.100;2023-08-24T11:52:43;100445.21;;;23.93;40.21
61761;BME280;47664;51.660;-0.100;2023-08-24T11:55:11;100435.15;;;23.96;39.57
61761;BME280;47664;51.660;-0.100;2023-08-24T11:57:39;100431.71;;;23.78;40.08
61761;BME280;47664;51.660;-0.100;2023-08-24T12:00:07;100426.04;;;24.17;39.12
61761;BME280;47664;51.660;-0.100;2023-08-24T12:02:34;100419.45;;;23.73;39.48
61761;BME280;47664;51.660;-0.100;2023-08-24T12:05:06;100414.03;;;23.87;40.10
61761;BME280;47664;51.660;-0.100;2023-08-24T12:07:34;100408.66;;;24.20;39.85
61761;BME280;47664;51.660;-0.100;2023-08-24T12:10:01;100408.17;;;24.28;39.28
61761;BME280;47664;51.660;-0.100;2023-08-24T12:12:29;100407.79;;;23.67;39.74
61761;BME280;47664;51.660;-0.100;2023-08-24T12:14:56;100413.64;;;23.72;40.13
61761;BME280;47664;51.660;-0.100;2023-08-24T12:17:23;100412.78;;;24.06;39.52
61761;BME280;47664;51.660;-0.100;2023-08-24T12:19:58;100410.10;;;23.78;39.96
61761;BME280;47664;51.660;-0.100;2023-08-24T12:22:26;100396.05;;;24.25;39.96
61761;BME280;47664;51.660;-0.100;2023-08-24T12:24:53;100387.81;;;24.24;40.07
61761;BME280;47664;51.660;-0.100;2023-08-24T12:27:20;100400.22;;;24.39;40.31
61761;BME280;47664;51.660;-0.100;2023-08-24T12:29:48;100398.77;;;23.83;40.59
61761;BME280;47664;51.660;-0.100;2023-08-24T12:32:17;100398.15;;;23.96;40.09
61761;BME280;47664;51.660;-0.100;2023-08-24T12:34:44;100394.68;;;24.01;40.08
61761;BME280;47664;51.660;-0.100;2023-08-24T12:37:11;100393.16;;;24.13;38.84
61761;BME280;47664;51.660;-0.100;2023-08-24T12:39:38;100390.66;;;24.00;39.66
61761;BME280;47664;51.660;-0.100;2023-08-24T12:42:06;100389.01;;;24.10;39.70
61761;BME280;47664;51.660;-0.100;2023-08-24T12:44:33;100395.05;;;23.61;40.89